Time;durP1;ratioP1;P1;durP2;ratioP2;P2;SDS_P1;SDS_P2;PMS_P1;PMS_P2;Temp;Humidity;BMP_temperature;BMP_pressure;BME280_temperature;BME280_humidity;BME280_pressure;Samples;Min_cycle;Max_cycle;Signal;HPM_P1;HPM_P2
2021/07/07 00:00:59;;;;;;;5.07;2.00;;;15.70;99.90;;;;;;4995191;28;20480;-87
2021/07/07 00:03:27;;;;;;;3.55;1.98;;;15.70;99.90;;;;;;4994722;28;20058;-87
2021/07/07 00:05:54;;;;;;;3.83;2.60;;;15.60;99.90;;;;;;4994583;28;20050;-87
2021/07/07 00:08:20;;;;;;;3.22;2.50;;;15.60;99.90;;;;;;4994889;28;20050;-88
2021/07/07 00:10:48;;;;;;;5.13;2.70;;;15.50;99.90;;;;;;4995144;28;20055;-88
2021/07/07 00:13:14;;;;;;;4.55;2.78;;;15.50;99.90;;;;;;4998928;28;20145;-88
2021/07/07 00:15:41;;;;;;;5.20;2.65;;;15.50;99.90;;;;;;5011231;28;20062;-88
2021/07/07 00:18:10;;;;;;;5.88;2.80;;;15.60;99.90;;;;;;4994941;28;20435;-87
2021/07/07 00:20:43;;;;;;;2.97;2.70;;;15.70;99.90;;;;;;4994834;28;20054;-88
2021/07/07 00:23:11;;;;;;;6.28;2.80;;;15.70;99.90;;;;;;4994225;28;20068;-87
2021/07/07 00:25:38;;;;;;;4.18;2.42;;;15.60;99.90;;;;;;4993992;28;20050;-88
2021/07/07 00:28:05;;;;;;;6.70;2.55;;;15.50;99.90;;;;;;4994525;28;20491;-88
2021/07/07 00:30:32;;;;;;;4.00;2.80;;;15.50;99.90;;;;;;4994040;28;20136;-87
2021/07/07 00:32:59;;;;;;;4.70;3.05;;;15.50;99.90;;;;;;4994419;28;20093;-87
2021/07/07 00:35:26;;;;;;;6.10;3.00;;;15.60;99.90;;;;;;4994128;28;20062;-87
2021/07/07 00:37:55;;;;;;;6.45;3.28;;;15.60;99.90;;;;;;4993988;28;20058;-88
2021/07/07 00:40:22;;;;;;;5.65;2.90;;;15.70;99.90;;;;;;4993825;28;20483;-87
2021/07/07 00:42:49;;;;;;;4.93;2.78;;;15.70;99.90;;;;;;4994053;28;20486;-88
2021/07/07 00:45:17;;;;;;;2.63;2.42;;;15.70;99.90;;;;;;4993893;28;20043;-87
2021/07/07 00:47:47;;;;;;;3.45;2.78;;;15.70;99.90;;;;;;4994121;28;20052;-87
2021/07/07 00:50:16;;;;;;;4.35;2.97;;;15.70;99.90;;;;;;4993913;28;20046;-88
2021/07/07 00:52:43;;;;;;;5.75;2.70;;;15.60;99.90;;;;;;4994934;28;20138;-87
2021/07/07 00:55:16;;;;;;;7.80;3.33;;;15.70;99.90;;;;;;4993616;28;20046;-87
2021/07/07 00:57:44;;;;;;;6.75;3.70;;;15.60;99.90;;;;;;4993782;28;20132;-88
2021/07/07 01:00:19;;;;;;;4.25;2.92;;;15.50;99.90;;;;;;4994473;28;20411;-87
2021/07/07 01:02:47;;;;;;;5.50;3.30;;;15.50;99.90;;;;;;4994607;28;20431;-88
2021/07/07 01:05:15;;;;;;;7.93;3.38;;;15.40;99.90;;;;;;4993291;28;20074;-87
2021/07/07 01:07:42;;;;;;;4.68;3.53;;;15.40;99.90;;;;;;4993641;28;20046;-88
2021/07/07 01:10:12;;;;;;;3.63;3.17;;;15.50;99.90;;;;;;4994838;28;20046;-87
2021/07/07 01:12:39;;;;;;;4.60;3.05;;;15.50;99.90;;;;;;4994754;28;20051;-87
2021/07/07 01:15:08;;;;;;;5.43;3.30;;;15.50;99.90;;;;;;4993808;28;20061;-87
2021/07/07 01:17:36;;;;;;;8.52;4.53;;;15.40;99.90;;;;;;4993843;28;20101;-86
2021/07/07 01:20:08;;;;;;;3.28;2.95;;;15.30;99.90;;;;;;4995447;28;20132;-86
2021/07/07 01:22:36;;;;;;;4.37;3.97;;;15.40;99.90;;;;;;4994045;28;20050;-87
2021/07/07 01:25:04;;;;;;;6.72;4.00;;;15.50;99.90;;;;;;4992629;28;20133;-86
2021/07/07 01:27:31;;;;;;;4.53;4.03;;;15.50;99.90;;;;;;4992886;28;20474;-86
2021/07/07 01:29:58;;;;;;;5.03;4.38;;;15.40;99.90;;;;;;4993364;28;20050;-86
2021/07/07 01:32:25;;;;;;;7.50;4.60;;;15.40;99.90;;;;;;4996490;28;20054;-87
2021/07/07 01:34:52;;;;;;;7.90;3.88;;;15.40;99.90;;;;;;5001342;28;20050;-86
2021/07/07 01:37:19;;;;;;;4.70;4.22;;;15.40;99.90;;;;;;4993071;28;20484;-86
2021/07/07 01:39:46;;;;;;;6.47;4.70;;;15.40;99.90;;;;;;4993222;28;20050;-86
2021/07/07 01:42:12;;;;;;;4.93;4.43;;;15.40;99.90;;;;;;4993026;28;20076;-86
2021/07/07 01:44:39;;;;;;;5.38;4.78;;;15.50;99.90;;;;;;4993918;28;20557;-86
2021/07/07 01:47:08;;;;;;;6.35;5.05;;;15.50;99.90;;;;;;4992903;28;20052;-86
2021/07/07 01:49:35;;;;;;;5.75;4.78;;;15.50;99.90;;;;;;4993074;28;20454;-85
2021/07/07 01:52:02;;;;;;;5.82;4.43;;;15.50;99.90;;;;;;4993102;28;20562;-87
2021/07/07 01:54:29;;;;;;;3.92;3.63;;;15.50;99.90;;;;;;4992932;28;20046;-87
2021/07/07 01:56:56;;;;;;;4.40;4.00;;;15.50;99.90;;;;;;4992964;28;20477;-87
2021/07/07 01:59:23;;;;;;;6.18;3.47;;;15.50;99.90;;;;;;4992707;28;20525;-87
2021/07/07 02:01:50;;;;;;;4.40;3.35;;;15.50;99.90;;;;;;4993663;28;20069;-87
2021/07/07 02:04:17;;;;;;;6.80;3.15;;;15.50;99.90;;;;;;4993729;28;20050;-88
2021/07/07 02:06:44;;;;;;;3.78;3.50;;;15.40;99.90;;;;;;4992832;28;20069;-88
2021/07/07 02:09:11;;;;;;;8.98;4.40;;;15.50;99.90;;;;;;4993010;28;20145;-88
2021/07/07 02:11:37;;;;;;;4.78;3.70;;;15.30;99.90;;;;;;4992690;28;20133;-87
2021/07/07 02:14:04;;;;;;;6.43;3.70;;;15.30;99.90;;;;;;4992736;28;20076;-87
2021/07/07 02:16:31;;;;;;;5.35;4.85;;;15.20;99.90;;;;;;4992765;28;20058;-86
2021/07/07 02:18:58;;;;;;;5.28;4.53;;;15.10;99.90;;;;;;4992919;28;20054;-88
2021/07/07 02:21:25;;;;;;;5.68;4.43;;;15.10;99.90;;;;;;4992808;28;20491;-87
2021/07/07 02:23:52;;;;;;;4.32;4.03;;;15.10;99.90;;;;;;4992477;28;20060;-87
2021/07/07 02:26:19;;;;;;;6.53;4.20;;;15.10;99.90;;;;;;4993688;28;20465;-87
2021/07/07 02:28:45;;;;;;;7.50;4.55;;;15.20;99.90;;;;;;4992766;28;20141;-87
2021/07/07 02:31:12;;;;;;;5.13;4.65;;;15.20;99.90;;;;;;4992873;28;20129;-88
2021/07/07 02:33:39;;;;;;;4.80;4.45;;;15.20;99.90;;;;;;4992644;28;20077;-87
2021/07/07 02:36:07;;;;;;;6.07;5.53;;;15.20;99.90;;;;;;4994195;28;20057;-88
2021/07/07 02:38:34;;;;;;;6.20;5.53;;;15.20;99.90;;;;;;4996364;28;20065;-88
2021/07/07 02:41:01;;;;;;;6.03;5.40;;;15.30;99.90;;;;;;4996186;28;20124;-87
2021/07/07 02:43:28;;;;;;;5.70;4.78;;;15.30;99.90;;;;;;4996045;28;20133;-87
2021/07/07 02:45:55;;;;;;;5.30;4.82;;;15.30;99.90;;;;;;4996088;28;20183;-87
2021/07/07 02:48:22;;;;;;;5.68;5.20;;;15.40;99.90;;;;;;4997067;28;20141;-87
2021/07/07 02:50:50;;;;;;;5.15;4.68;;;15.30;99.90;;;;;;5000942;28;20047;-88
2021/07/07 02:53:18;;;;;;;5.07;4.65;;;15.20;99.90;;;;;;5007547;28;20133;-88
2021/07/07 02:55:45;;;;;;;4.70;4.40;;;15.20;99.90;;;;;;4996089;28;20080;-89
2021/07/07 02:58:12;;;;;;;4.22;3.95;;;15.30;99.90;;;;;;4995721;28;20082;-88
2021/07/07 03:00:43;;;;;;;5.72;4.13;;;15.30;99.90;;;;;;4996214;28;20050;-88
2021/07/07 03:03:13;;;;;;;5.38;4.97;;;15.30;99.90;;;;;;4997065;28;20483;-88
2021/07/07 03:05:45;;;;;;;5.95;4.50;;;15.30;99.90;;;;;;4995729;28;20057;-89
2021/07/07 03:08:12;;;;;;;5.55;5.05;;;15.30;99.90;;;;;;4995560;28;20052;-89
2021/07/07 03:10:41;;;;;;;4.95;4.53;;;15.30;99.90;;;;;;4995779;28;20133;-88
2021/07/07 03:13:08;;;;;;;4.32;3.92;;;15.30;99.90;;;;;;4996041;28;20069;-88
2021/07/07 03:15:37;;;;;;;3.80;3.60;;;15.30;99.90;;;;;;4995468;28;20553;-88
2021/07/07 03:18:05;;;;;;;5.38;3.70;;;15.20;99.90;;;;;;4995728;28;20074;-88
2021/07/07 03:20:34;;;;;;;3.78;3.53;;;15.20;99.90;;;;;;4995673;28;20047;-88
2021/07/07 03:23:01;;;;;;;6.53;5.10;;;15.20;99.90;;;;;;4995267;28;20133;-88
2021/07/07 03:25:28;;;;;;;5.32;4.00;;;15.20;99.90;;;;;;4995044;28;20047;-89
2021/07/07 03:27:55;;;;;;;6.13;5.65;;;15.20;99.90;;;;;;4996198;28;20133;-87
2021/07/07 03:30:25;;;;;;;5.57;5.10;;;15.20;99.90;;;;;;4995374;28;20061;-86
2021/07/07 03:32:56;;;;;;;6.60;5.97;;;15.10;99.90;;;;;;4995138;28;20141;-87
2021/07/07 03:35:23;;;;;;;5.60;4.72;;;15.10;99.90;;;;;;4994933;28;20061;-87
2021/07/07 03:37:51;;;;;;;5.53;5.13;;;15.20;99.90;;;;;;4996194;28;20046;-87
2021/07/07 03:40:19;;;;;;;8.63;5.30;;;15.20;99.90;;;;;;4995673;28;20414;-87
2021/07/07 03:42:46;;;;;;;6.22;5.63;;;15.20;99.90;;;;;;4994879;28;20483;-86
2021/07/07 03:45:16;;;;;;;8.98;6.45;;;15.30;99.90;;;;;;4994738;28;20051;-87
2021/07/07 03:47:43;;;;;;;6.75;6.15;;;15.30;99.90;;;;;;4994053;28;20046;-87
2021/07/07 03:50:11;;;;;;;6.57;5.95;;;15.40;99.90;;;;;;4995647;28;20050;-87
2021/07/07 03:52:38;;;;;;;7.20;6.25;;;15.30;99.90;;;;;;4995071;28;20042;-87
2021/07/07 03:55:07;;;;;;;6.90;6.35;;;15.40;99.90;;;;;;4995077;28;20140;-87
2021/07/07 03:57:34;;;;;;;10.68;7.07;;;15.40;99.90;;;;;;4994908;28;20456;-87
2021/07/07 04:00:01;;;;;;;7.13;6.45;;;15.40;99.90;;;;;;4995824;28;20050;-87
2021/07/07 04:02:27;;;;;;;9.10;6.40;;;15.30;99.90;;;;;;4994959;28;20066;-87
2021/07/07 04:04:54;;;;;;;7.93;5.88;;;15.20;99.90;;;;;;4994884;28;20056;-87
2021/07/07 04:07:21;;;;;;;6.00;5.60;;;15.20;99.90;;;;;;4994912;28;20057;-87
2021/07/07 04:09:48;;;;;;;7.47;5.95;;;15.10;99.90;;;;;;5001575;28;20060;-87
2021/07/07 04:12:15;;;;;;;6.22;5.68;;;15.10;99.90;;;;;;5004776;28;20057;-88
2021/07/07 04:14:41;;;;;;;5.30;4.90;;;15.20;99.90;;;;;;4995115;28;20046;-88
2021/07/07 04:17:08;;;;;;;6.18;5.63;;;15.20;99.90;;;;;;4994563;28;20055;-88
2021/07/07 04:19:36;;;;;;;5.90;5.40;;;15.20;99.90;;;;;;4995602;28;20042;-87
2021/07/07 04:22:03;;;;;;;5.55;5.18;;;15.30;99.90;;;;;;4994413;28;20068;-88
2021/07/07 04:24:30;;;;;;;6.95;5.53;;;15.40;99.90;;;;;;4994327;28;20089;-88
2021/07/07 04:26:57;;;;;;;6.07;5.57;;;15.30;99.90;;;;;;4995396;28;20042;-88
2021/07/07 04:29:24;;;;;;;5.53;4.97;;;15.40;99.90;;;;;;4994183;28;20097;-88
2021/07/07 04:31:56;;;;;;;9.48;5.38;;;15.40;99.90;;;;;;4994523;28;20082;-88
2021/07/07 04:34:24;;;;;;;5.32;4.82;;;15.40;99.90;;;;;;4994528;28;20057;-88
2021/07/07 04:36:51;;;;;;;6.00;4.88;;;15.40;99.90;;;;;;4994298;28;20137;-87
2021/07/07 04:39:17;;;;;;;4.93;4.63;;;15.40;99.90;;;;;;4994250;28;20061;-88
2021/07/07 04:41:44;;;;;;;4.88;4.20;;;15.50;99.90;;;;;;4994395;28;20146;-89
2021/07/07 04:44:11;;;;;;;4.13;3.92;;;15.40;99.90;;;;;;4993850;28;20060;-88
2021/07/07 04:46:38;;;;;;;4.25;3.95;;;15.40;99.90;;;;;;4993946;28;20487;-88
2021/07/07 04:49:05;;;;;;;4.60;4.30;;;15.50;99.90;;;;;;4994176;28;20050;-88
2021/07/07 04:51:32;;;;;;;6.80;5.38;;;15.50;99.90;;;;;;4993910;28;20052;-88
2021/07/07 04:53:59;;;;;;;7.30;4.72;;;15.40;99.90;;;;;;4994022;28;20056;-87
2021/07/07 04:56:26;;;;;;;4.05;3.85;;;15.40;99.90;;;;;;4993768;28;20054;-88
2021/07/07 04:58:52;;;;;;;4.55;4.18;;;15.40;99.90;;;;;;4993493;28;20491;-88
2021/07/07 05:01:19;;;;;;;5.03;4.63;;;15.40;99.90;;;;;;5001350;28;20125;-88
2021/07/07 05:03:46;;;;;;;4.75;4.35;;;15.40;99.90;;;;;;4993522;28;20047;-89
2021/07/07 05:06:13;;;;;;;4.70;4.30;;;15.40;99.90;;;;;;4993674;28;20061;-88
2021/07/07 05:08:39;;;;;;;5.78;5.28;;;15.50;99.90;;;;;;4993573;28;20046;-88
2021/07/07 05:11:06;;;;;;;4.30;4.00;;;15.50;99.90;;;;;;4993595;28;20064;-89
2021/07/07 05:13:33;;;;;;;3.92;3.72;;;15.50;99.90;;;;;;4993720;28;20380;-88
2021/07/07 05:16:00;;;;;;;4.28;3.97;;;15.60;99.90;;;;;;4993696;28;20137;-88
2021/07/07 05:18:27;;;;;;;4.45;4.15;;;15.40;99.90;;;;;;4993397;28;20046;-87
2021/07/07 05:20:54;;;;;;;7.53;4.75;;;15.30;99.90;;;;;;4993185;28;20058;-88
2021/07/07 05:23:21;;;;;;;5.20;4.75;;;15.30;99.90;;;;;;4992951;28;20066;-88
2021/07/07 05:25:48;;;;;;;5.95;5.00;;;15.40;99.90;;;;;;4993328;28;20399;-88
2021/07/07 05:28:16;;;;;;;6.18;5.43;;;15.50;99.90;;;;;;4993947;28;20411;-88
2021/07/07 05:30:42;;;;;;;7.22;5.20;;;15.60;99.90;;;;;;4997493;28;20046;-88
2021/07/07 05:33:09;;;;;;;7.38;6.00;;;15.70;99.90;;;;;;5006786;28;20137;-87
2021/07/07 05:35:37;;;;;;;7.70;5.80;;;15.70;99.90;;;;;;4993027;28;20051;-87
2021/07/07 05:38:05;;;;;;;7.05;5.90;;;15.70;99.90;;;;;;4993147;28;20050;-88
2021/07/07 05:40:32;;;;;;;8.82;5.75;;;15.80;99.90;;;;;;4993347;28;20398;-88
2021/07/07 05:42:59;;;;;;;7.35;5.88;;;15.90;99.90;;;;;;4992954;28;20054;-88
2021/07/07 05:45:27;;;;;;;6.88;6.22;;;16.00;99.90;;;;;;4993819;28;20113;-88
2021/07/07 05:47:55;;;;;;;6.07;5.57;;;15.90;99.90;;;;;;4993989;28;20145;-87
2021/07/07 05:50:24;;;;;;;5.50;5.00;;;16.00;99.90;;;;;;4993010;28;20133;-87
2021/07/07 05:52:51;;;;;;;5.43;4.93;;;16.00;99.90;;;;;;4993158;28;20129;-88
2021/07/07 05:55:20;;;;;;;6.55;4.43;;;16.10;99.90;;;;;;4992885;28;20478;-87
2021/07/07 05:57:47;;;;;;;5.72;5.22;;;16.10;99.90;;;;;;4992553;28;20042;-87
2021/07/07 06:00:21;;;;;;;5.95;4.78;;;16.20;99.90;;;;;;4993134;28;20061;-88
2021/07/07 06:02:51;;;;;;;6.53;4.47;;;16.30;99.90;;;;;;4991426;28;20411;-88
2021/07/07 06:05:20;;;;;;;8.20;4.50;;;16.30;99.90;;;;;;4993685;28;20057;-88
2021/07/07 06:07:47;;;;;;;3.75;3.47;;;16.30;99.90;;;;;;4992663;28;20051;-89
2021/07/07 06:10:17;;;;;;;3.33;3.13;;;16.30;99.90;;;;;;4993126;28;20057;-89
2021/07/07 06:12:44;;;;;;;6.57;2.53;;;16.30;99.90;;;;;;4997054;28;20050;-87
2021/07/07 06:15:13;;;;;;;3.15;2.40;;;16.20;99.90;;;;;;4996942;28;20134;-87
2021/07/07 06:17:40;;;;;;;2.80;2.60;;;16.10;99.90;;;;;;4998266;28;20054;-88
2021/07/07 06:20:10;;;;;;;2.75;2.53;;;16.10;99.90;;;;;;4998069;28;20046;-88
2021/07/07 06:22:39;;;;;;;2.60;2.40;;;16.10;99.90;;;;;;4996787;28;20090;-88
2021/07/07 06:25:07;;;;;;;2.67;2.58;;;16.10;99.90;;;;;;4997770;28;20050;-87
2021/07/07 06:27:36;;;;;;;3.35;2.67;;;16.10;99.90;;;;;;4996944;28;20136;-88
2021/07/07 06:30:05;;;;;;;2.67;2.50;;;16.10;99.90;;;;;;4996605;28;20053;-86
2021/07/07 06:32:31;;;;;;;2.58;2.38;;;16.20;99.90;;;;;;4997577;28;20050;-87
2021/07/07 06:35:01;;;;;;;4.25;2.72;;;16.20;99.90;;;;;;4996443;28;20050;-87
2021/07/07 06:37:29;;;;;;;7.40;3.30;;;16.30;99.90;;;;;;4996542;28;20133;-86
2021/07/07 06:39:59;;;;;;;11.50;3.70;;;16.30;99.90;;;;;;4997382;28;20388;-87
2021/07/07 06:42:25;;;;;;;6.53;3.95;;;16.40;99.90;;;;;;4996263;28;20060;-85
2021/07/07 06:44:52;;;;;;;8.80;3.70;;;16.30;99.90;;;;;;4996117;28;20133;-87
2021/07/07 06:47:19;;;;;;;5.78;3.55;;;16.40;99.90;;;;;;4996168;28;20057;-87
2021/07/07 06:49:46;;;;;;;5.32;3.42;;;16.50;99.90;;;;;;4997555;28;20062;-86
2021/07/07 06:52:13;;;;;;;11.98;3.72;;;16.70;99.90;;;;;;5009939;28;20118;-86
2021/07/07 06:54:42;;;;;;;3.50;3.30;;;16.70;99.90;;;;;;4997071;28;20521;-86
2021/07/07 06:57:10;;;;;;;6.63;3.63;;;16.80;99.90;;;;;;4996075;28;20046;-86
2021/07/07 06:59:37;;;;;;;6.28;3.60;;;16.90;99.90;;;;;;4995885;28;20061;-86
2021/07/07 07:02:04;;;;;;;10.45;3.75;;;17.00;99.90;;;;;;4995874;28;20043;-86
2021/07/07 07:04:31;;;;;;;8.05;3.63;;;17.10;99.90;;;;;;4995906;28;20146;-86
2021/07/07 07:06:59;;;;;;;10.45;3.53;;;17.10;99.90;;;;;;4996658;28;20479;-86
2021/07/07 07:09:26;;;;;;;5.65;3.03;;;17.20;99.90;;;;;;4996693;28;20507;-86
2021/07/07 07:11:53;;;;;;;6.35;3.17;;;17.20;99.90;;;;;;4996612;28;20047;-85
2021/07/07 07:14:21;;;;;;;5.47;3.05;;;17.50;99.90;;;;;;4996627;28;20501;-85
2021/07/07 07:16:48;;;;;;;6.45;4.82;;;17.70;99.90;;;;;;4995475;28;20052;-85
2021/07/07 07:19:15;;;;;;;4.40;3.97;;;18.00;99.90;;;;;;4995818;28;20097;-86
2021/07/07 07:21:43;;;;;;;2.20;2.00;;;18.20;99.90;;;;;;4994915;28;20058;-86
2021/07/07 07:24:11;;;;;;;2.33;2.03;;;18.40;99.90;;;;;;4995847;28;20057;-87
2021/07/07 07:26:38;;;;;;;3.13;1.80;;;18.50;99.90;;;;;;4996289;28;20050;-86
2021/07/07 07:29:05;;;;;;;5.60;2.13;;;18.60;99.90;;;;;;4995648;28;20452;-86
2021/07/07 07:31:32;;;;;;;4.57;1.80;;;18.70;99.90;;;;;;4995448;28;20046;-86
2021/07/07 07:33:59;;;;;;;3.17;1.45;;;18.90;99.90;;;;;;4996375;28;20054;-86
2021/07/07 07:36:26;;;;;;;3.08;2.38;;;18.90;99.90;;;;;;4995167;28;20464;-85
2021/07/07 07:39:01;;;;;;;5.47;3.20;;;18.90;99.90;;;;;;4995198;28;20056;-86
2021/07/07 07:41:38;;;;;;;3.45;1.95;;;18.90;99.90;;;;;;4995105;28;20065;-86
2021/07/07 07:44:08;;;;;;;3.42;2.05;;;19.00;99.90;;;;;;4996199;28;20057;-86
2021/07/07 07:46:34;;;;;;;7.75;2.85;;;19.10;99.90;;;;;;4995966;28;20109;-86
2021/07/07 07:49:04;;;;;;;4.10;2.00;;;19.20;99.90;;;;;;4995095;28;20085;-86
2021/07/07 07:51:32;;;;;;;3.72;2.22;;;19.40;99.90;;;;;;4994807;28;20129;-86
2021/07/07 07:53:59;;;;;;;3.55;1.60;;;19.40;99.90;;;;;;4994900;28;20222;-86
2021/07/07 07:56:26;;;;;;;2.10;1.27;;;19.50;99.90;;;;;;4994901;28;20077;-86
2021/07/07 07:58:53;;;;;;;2.17;1.42;;;19.70;99.90;;;;;;4995919;28;20069;-86
2021/07/07 08:01:20;;;;;;;4.18;3.83;;;19.80;99.90;;;;;;4995798;28;20531;-86
2021/07/07 08:03:47;;;;;;;4.45;3.08;;;19.80;99.90;;;;;;4995910;28;20060;-86
2021/07/07 08:06:14;;;;;;;3.03;1.75;;;19.60;99.90;;;;;;4995259;28;20053;-86
2021/07/07 08:08:40;;;;;;;3.45;1.75;;;19.40;99.90;;;;;;4998489;28;20050;-87
2021/07/07 08:11:07;;;;;;;2.83;1.60;;;19.30;99.90;;;;;;5001923;28;20051;-87
2021/07/07 08:13:37;;;;;;;2.95;1.60;;;19.20;99.90;;;;;;4995738;28;20149;-86
2021/07/07 08:16:05;;;;;;;2.42;1.70;;;19.20;99.90;;;;;;4994685;28;20060;-86
2021/07/07 08:18:31;;;;;;;3.83;1.67;;;19.30;99.90;;;;;;4994631;28;20054;-87
2021/07/07 08:20:58;;;;;;;1.50;1.40;;;19.20;99.90;;;;;;4994682;28;20077;-86
2021/07/07 08:23:25;;;;;;;1.55;1.42;;;19.30;99.90;;;;;;4994213;28;20060;-86
2021/07/07 08:25:52;;;;;;;3.22;1.80;;;19.30;99.90;;;;;;4994112;28;20050;-87
2021/07/07 08:28:19;;;;;;;9.18;2.53;;;19.00;99.90;;;;;;4994467;28;20049;-87
2021/07/07 08:30:46;;;;;;;5.53;2.35;;;18.90;99.90;;;;;;4994536;28;20133;-87
2021/07/07 08:33:14;;;;;;;11.80;2.75;;;19.00;99.90;;;;;;4994290;28;20051;-87
2021/07/07 08:35:42;;;;;;;3.95;2.00;;;19.30;99.90;;;;;;4994067;28;20050;-87
2021/07/07 08:38:08;;;;;;;4.22;2.33;;;19.50;99.90;;;;;;4994235;28;20410;-87
2021/07/07 08:40:35;;;;;;;4.45;2.35;;;19.70;99.90;;;;;;4995296;28;20060;-88
2021/07/07 08:43:03;;;;;;;3.78;1.80;;;19.90;99.90;;;;;;4995298;28;20050;-87
2021/07/07 08:45:32;;;;;;;8.10;2.22;;;20.00;99.90;;;;;;4994061;28;20054;-89
2021/07/07 08:47:59;;;;;;;3.85;1.80;;;20.00;99.90;;;;;;4995160;28;20073;-87
2021/07/07 08:50:28;;;;;;;2.22;1.70;;;20.00;99.90;;;;;;4995117;28;20086;-88
2021/07/07 08:52:58;;;;;;;10.27;2.55;;;20.10;99.90;;;;;;4994301;28;20069;-88
2021/07/07 08:55:25;;;;;;;3.05;2.08;;;20.20;99.90;;;;;;4994308;28;20054;-87
2021/07/07 08:57:53;;;;;;;3.63;1.90;;;20.10;99.90;;;;;;4993952;28;20054;-87
2021/07/07 09:00:32;;;;;;;6.18;2.17;;;20.20;99.90;;;;;;4994723;28;20050;-87
2021/07/07 09:03:13;;;;;;;5.75;1.80;;;20.40;99.90;;;;;;4994238;28;20081;-88
2021/07/07 09:06:01;;;;;;;7.32;1.92;;;20.80;99.90;;;;;;4993644;28;20153;-88
2021/07/07 09:08:39;;;;;;;3.53;1.30;;;20.90;99.90;;;;;;4993833;28;20133;-88
2021/07/07 09:11:27;;;;;;;1.90;1.60;;;21.10;99.90;;;;;;4995144;28;20060;-89
2021/07/07 09:14:15;;;;;;;10.35;2.42;;;20.80;99.90;;;;;;4993940;28;20555;-88
2021/07/07 09:16:57;;;;;;;2.80;1.70;;;20.70;99.90;;;;;;4993857;28;20050;-88
2021/07/07 09:19:26;;;;;;;5.72;1.55;;;21.00;99.90;;;;;;4993966;28;20054;-88
2021/07/07 09:21:59;;;;;;;5.22;1.73;;;21.10;99.90;;;;;;4994179;28;20438;-88
2021/07/07 09:24:26;;;;;;;3.33;1.60;;;21.00;99.90;;;;;;4994504;28;20052;-88
2021/07/07 09:27:16;;;;;;;3.10;1.60;;;20.90;99.90;;;;;;4995020;28;20056;-88
2021/07/07 09:29:51;;;;;;;3.90;1.58;;;20.70;99.90;;;;;;5001244;28;20046;-88
2021/07/07 09:32:19;;;;;;;4.68;1.88;;;20.40;99.90;;;;;;4996633;28;20054;-88
2021/07/07 09:34:50;;;;;;;11.52;2.10;;;20.20;99.90;;;;;;4993762;28;20046;-88
2021/07/07 09:37:37;;;;;;;3.13;1.92;;;20.10;99.90;;;;;;4992614;28;20054;-88
2021/07/07 09:40:08;;;;;;;5.22;1.80;;;19.90;99.90;;;;;;4993751;28;20074;-88
2021/07/07 09:42:37;;;;;;;5.63;2.00;;;19.80;99.90;;;;;;4993515;28;20052;-89
2021/07/07 09:45:07;;;;;;;5.80;2.00;;;19.90;99.90;;;;;;4992619;28;20061;-89
2021/07/07 09:47:34;;;;;;;5.93;1.80;;;20.30;99.90;;;;;;4994558;28;20052;-89
2021/07/07 09:50:03;;;;;;;6.93;1.83;;;20.50;99.90;;;;;;4994259;28;20132;-89
2021/07/07 09:52:31;;;;;;;3.33;1.80;;;20.70;99.90;;;;;;4993628;28;20052;-89
2021/07/07 09:55:01;;;;;;;3.10;1.50;;;21.10;99.90;;;;;;4993892;28;20562;-89
2021/07/07 09:57:30;;;;;;;6.80;1.63;;;21.40;99.90;;;;;;4994287;28;20410;-89
2021/07/07 09:59:56;;;;;;;5.82;1.60;;;21.50;99.90;;;;;;4993320;28;20062;-89
2021/07/07 10:02:23;;;;;;;4.40;1.80;;;21.80;99.90;;;;;;4992470;28;20402;-89
2021/07/07 10:04:52;;;;;;;10.73;1.42;;;21.90;99.90;;;;;;4993280;28;20074;-91
2021/07/07 10:07:20;;;;;;;3.17;1.40;;;22.30;99.90;;;;;;4993907;28;20046;-88
2021/07/07 10:09:49;;;;;;;2.80;1.50;;;22.60;99.90;;;;;;4993303;28;20622;-88
2021/07/07 10:12:18;;;;;;;2.78;1.10;;;23.20;99.90;;;;;;4994411;28;20153;-89
2021/07/07 10:14:45;;;;;;;2.55;1.48;;;23.90;99.90;;;;;;4994147;28;20046;-90
2021/07/07 10:17:12;;;;;;;6.10;2.40;;;24.50;99.90;;;;;;4992905;28;20060;-90
2021/07/07 10:19:39;;;;;;;5.75;1.88;;;24.90;99.90;;;;;;4994099;28;20581;-89
2021/07/07 10:22:06;;;;;;;1.20;1.08;;;24.50;99.90;;;;;;4992920;28;20062;-89
2021/07/07 10:24:34;;;;;;;1.77;0.95;;;24.70;99.90;;;;;;4992857;28;20056;-87
2021/07/07 10:27:05;;;;;;;2.45;0.93;;;25.00;99.90;;;;;;4992899;28;20146;-89
2021/07/07 10:29:34;;;;;;;5.13;1.00;;;24.90;99.90;;;;;;4992994;28;20057;-89
2021/07/07 10:32:05;;;;;;;2.40;1.27;;;24.80;99.90;;;;;;4992987;28;20054;-88
2021/07/07 10:34:32;;;;;;;3.83;1.10;;;24.20;99.90;;;;;;4992791;28;20050;-89
2021/07/07 10:37:01;;;;;;;12.30;1.90;;;24.00;99.90;;;;;;4992910;28;20137;-89
2021/07/07 10:39:29;;;;;;;2.83;1.20;;;23.20;99.90;;;;;;4993073;28;20483;-90
2021/07/07 10:42:02;;;;;;;9.02;2.28;;;23.20;99.90;;;;;;4995110;28;20085;-89
2021/07/07 10:44:35;;;;;;;7.18;1.60;;;23.10;99.90;;;;;;4994252;28;20487;-89
2021/07/07 10:47:15;;;;;;;9.17;1.83;;;22.80;99.90;;;;;;4992791;28;20054;-89
2021/07/07 10:49:51;;;;;;;2.30;1.20;;;23.10;99.90;;;;;;5001984;28;20396;-89
2021/07/07 10:52:43;;;;;;;3.72;1.30;;;23.50;99.90;;;;;;4999484;28;20141;-89
2021/07/07 10:55:13;;;;;;;2.85;1.10;;;23.30;99.90;;;;;;4992994;28;20050;-90
2021/07/07 10:57:43;;;;;;;1.00;0.93;;;23.30;99.90;;;;;;4993392;28;20066;-89
2021/07/07 11:00:32;;;;;;;2.75;0.93;;;23.20;99.90;;;;;;4996582;28;20495;-90
2021/07/07 11:03:19;;;;;;;1.55;1.20;;;23.20;99.90;;;;;;4996678;28;20058;-89
2021/07/07 11:05:46;;;;;;;3.47;0.98;;;23.20;99.90;;;;;;4995863;28;20146;-88
2021/07/07 11:08:20;;;;;;;2.55;1.27;;;23.10;99.90;;;;;;4996260;28;20146;-89
2021/07/07 11:10:56;;;;;;;5.07;1.50;;;23.00;99.90;;;;;;4996129;28;20083;-89
2021/07/07 11:13:23;;;;;;;5.32;1.30;;;22.80;99.90;;;;;;4995948;28;20054;-88
2021/07/07 11:15:50;;;;;;;2.15;1.20;;;22.80;99.90;;;;;;4995866;28;20054;-89
2021/07/07 11:18:19;;;;;;;6.65;0.98;;;22.80;99.90;;;;;;4995912;28;20054;-89
2021/07/07 11:20:58;;;;;;;2.47;1.23;;;22.70;99.90;;;;;;4995734;28;20058;-88
2021/07/07 11:23:25;;;;;;;2.83;1.13;;;22.70;99.90;;;;;;4995722;28;20602;-88
2021/07/07 11:25:52;;;;;;;5.35;1.42;;;22.60;99.90;;;;;;4995574;28;20574;-89
2021/07/07 11:28:21;;;;;;;4.47;1.27;;;22.50;99.90;;;;;;4995647;28;20053;-90
2021/07/07 11:30:48;;;;;;;1.10;1.10;;;22.50;99.90;;;;;;5003780;28;20477;-89
2021/07/07 11:33:15;;;;;;;2.85;1.30;;;22.60;99.90;;;;;;4995435;28;20046;-91
2021/07/07 11:35:43;;;;;;;8.40;1.48;;;22.60;99.90;;;;;;4995570;28;20064;-91
2021/07/07 11:38:12;;;;;;;9.45;1.92;;;22.80;99.90;;;;;;4995604;28;20050;-90
2021/07/07 11:40:42;;;;;;;8.88;1.88;;;23.20;99.90;;;;;;4995678;28;20479;-91
2021/07/07 11:43:13;;;;;;;5.22;1.00;;;23.30;99.90;;;;;;4995854;28;20054;-92
2021/07/07 11:45:43;;;;;;;1.92;1.33;;;23.50;99.90;;;;;;4995189;28;20050;-90
2021/07/07 11:48:15;;;;;;;1.73;0.80;;;24.20;99.90;;;;;;4995855;28;20057;-90
2021/07/07 11:50:48;;;;;;;3.50;1.00;;;25.10;99.90;;;;;;4995687;28;20158;-90
2021/07/07 11:53:16;;;;;;;2.88;0.88;;;25.70;99.90;;;;;;4995569;28;20051;-91
2021/07/07 11:56:04;;;;;;;1.33;0.70;;;25.70;99.90;;;;;;4995133;28;20054;-91
2021/07/07 11:58:34;;;;;;;1.70;0.98;;;25.60;99.90;;;;;;4995530;28;20050;-91
2021/07/07 12:01:13;;;;;;;3.88;1.00;;;25.70;99.90;;;;;;4995356;28;20518;-92
2021/07/07 12:03:41;;;;;;;4.57;1.33;;;25.80;99.90;;;;;;4994907;28;20050;-91
2021/07/07 12:06:12;;;;;;;2.22;0.90;;;26.10;99.90;;;;;;4995584;28;20146;-92
2021/07/07 12:08:41;;;;;;;3.55;1.10;;;25.70;99.90;;;;;;5003261;28;20042;-94
2021/07/07 12:11:18;;;;;;;2.35;0.90;;;25.50;99.90;;;;;;5010421;28;20542;-91
2021/07/07 12:13:47;;;;;;;3.90;1.23;;;25.30;99.90;;;;;;4997502;28;20478;-94
2021/07/07 12:16:15;;;;;;;2.90;1.15;;;24.60;99.90;;;;;;4995050;28;20546;-91
2021/07/07 12:18:43;;;;;;;3.00;1.00;;;24.20;99.90;;;;;;4995161;28;20101;-91
2021/07/07 12:21:27;;;;;;;2.58;1.13;;;23.90;99.90;;;;;;4995166;28;20042;-94
2021/07/07 12:23:55;;;;;;;12.45;1.55;;;23.70;99.90;;;;;;4996062;28;20101;-90
2021/07/07 12:26:24;;;;;;;3.90;1.00;;;23.40;99.90;;;;;;4994760;28;20551;-92
2021/07/07 12:28:57;;;;;;;6.20;1.92;;;23.50;99.90;;;;;;4994685;28;20438;-92
2021/07/07 12:31:27;;;;;;;3.95;0.90;;;23.90;99.90;;;;;;4994772;28;20144;-90
2021/07/07 12:33:55;;;;;;;2.78;0.95;;;24.10;99.90;;;;;;4995043;28;20057;-90
2021/07/07 12:36:30;;;;;;;6.20;1.90;;;24.30;99.90;;;;;;4994791;28;20058;-95
2021/07/07 12:39:10;;;;;;;3.70;0.90;;;24.40;99.90;;;;;;4994782;28;20050;-93
2021/07/07 12:41:39;;;;;;;2.60;1.20;;;24.10;99.90;;;;;;4994502;28;20054;-90
2021/07/07 12:44:12;;;;;;;2.60;1.02;;;24.50;99.90;;;;;;4994562;28;20061;-91
2021/07/07 12:46:50;;;;;;;2.33;1.33;;;24.60;99.90;;;;;;4994106;28;20050;-92
2021/07/07 12:49:23;;;;;;;1.23;1.00;;;24.60;99.90;;;;;;4994177;28;20141;-90
2021/07/07 12:51:51;;;;;;;1.67;1.00;;;24.20;99.90;;;;;;4994274;28;20141;-90
2021/07/07 12:54:20;;;;;;;2.35;1.08;;;23.80;99.90;;;;;;4994475;28;20054;-90